sensor_id;sensor_type;location;lat;lon;timestamp;P1;durP1;ratioP1;P2;durP2;ratioP2
75645;SDS011;64237;52.438;13.240;2023-06-10T00:00:48;10.60;;;3.13;;
75645;SDS011;64237;52.438;13.240;2023-06-10T00:03:15;9.35;;;3.10;;
75645;SDS011;64237;52.438;13.240;2023-06-10T00:05:41;9.32;;;3.42;;
75645;SDS011;64237;52.438;13.240;2023-06-10T00:08:06;9.88;;;3.80;;
75645;SDS011;64237;52.438;13.240;2023-06-10T00:10:33;8.70;;;3.45;;
75645;SDS011;64237;52.438;13.240;2023-06-10T00:13:00;12.98;;;3.00;;
75645;SDS011;64237;52.438;13.240;2023-06-10T00:15:26;12.38;;;3.60;;
75645;SDS011;64237;52.438;13.240;2023-06-10T00:17:51;7.22;;;2.90;;
75645;SDS011;64237;52.438;13.240;2023-06-10T00:20:20;11.20;;;3.33;;
75645;SDS011;64237;52.438;13.240;2023-06-10T00:22:47;8.07;;;2.72;;
75645;SDS011;64237;52.438;13.240;2023-06-10T00:25:13;9.15;;;3.13;;
75645;SDS011;64237;52.438;13.240;2023-06-10T00:27:39;9.75;;;2.92;;
75645;SDS011;64237;52.438;13.240;2023-06-10T00:30:04;10.48;;;2.88;;
75645;SDS011;64237;52.438;13.240;2023-06-10T00:32:32;9.65;;;2.88;;
75645;SDS011;64237;52.438;13.240;2023-06-10T00:34:58;7.72;;;2.97;;
75645;SDS011;64237;52.438;13.240;2023-06-10T00:37:23;8.85;;;2.90;;
75645;SDS011;64237;52.438;13.240;2023-06-10T00:39:48;9.95;;;2.85;;
75645;SDS011;64237;52.438;13.240;2023-06-10T00:42:14;11.43;;;2.92;;
75645;SDS011;64237;52.438;13.240;2023-06-10T00:44:39;9.63;;;3.38;;
75645;SDS011;64237;52.438;13.240;2023-06-10T00:47:05;10.88;;;3.20;;
75645;SDS011;64237;52.438;13.240;2023-06-10T00:49:31;11.48;;;3.80;;
75645;SDS011;64237;52.438;13.240;2023-06-10T00:51:57;6.97;;;3.00;;
75645;SDS011;64237;52.438;13.240;2023-06-10T00:54:23;11.07;;;3.17;;
75645;SDS011;64237;52.438;13.240;2023-06-10T00:56:49;11.02;;;3.00;;
75645;SDS011;64237;52.438;13.240;2023-06-10T00:59:15;10.85;;;3.05;;
75645;SDS011;64237;52.438;13.240;2023-06-10T01:01:41;8.68;;;3.25;;
75645;SDS011;64237;52.438;13.240;2023-06-10T01:04:08;9.65;;;3.08;;
75645;SDS011;64237;52.438;13.240;2023-06-10T01:06:41;7.78;;;3.08;;
75645;SDS011;64237;52.438;13.240;2023-06-10T01:09:30;10.43;;;3.17;;
75645;SDS011;64237;52.438;13.240;2023-06-10T01:12:05;9.30;;;3.20;;
75645;SDS011;64237;52.438;13.240;2023-06-10T01:14:38;9.75;;;3.20;;
75645;SDS011;64237;52.438;13.240;2023-06-10T01:17:10;12.23;;;3.27;;
75645;SDS011;64237;52.438;13.240;2023-06-10T01:19:36;9.63;;;3.20;;
75645;SDS011;64237;52.438;13.240;2023-06-10T01:22:02;14.30;;;3.60;;
75645;SDS011;64237;52.438;13.240;2023-06-10T01:24:28;10.57;;;3.35;;
75645;SDS011;64237;52.438;13.240;2023-06-10T01:26:55;9.65;;;3.20;;
75645;SDS011;64237;52.438;13.240;2023-06-10T01:29:28;8.55;;;2.67;;
75645;SDS011;64237;52.438;13.240;2023-06-10T01:32:12;11.27;;;3.35;;
75645;SDS011;64237;52.438;13.240;2023-06-10T01:34:42;8.85;;;3.33;;
75645;SDS011;64237;52.438;13.240;2023-06-10T01:37:09;12.15;;;3.80;;
75645;SDS011;64237;52.438;13.240;2023-06-10T01:39:42;8.98;;;3.17;;
75645;SDS011;64237;52.438;13.240;2023-06-10T01:42:08;10.77;;;3.13;;
75645;SDS011;64237;52.438;13.240;2023-06-10T01:44:35;10.68;;;3.25;;
75645;SDS011;64237;52.438;13.240;2023-06-10T01:47:01;14.18;;;3.45;;
75645;SDS011;64237;52.438;13.240;2023-06-10T01:49:26;10.38;;;3.35;;
75645;SDS011;64237;52.438;13.240;2023-06-10T01:51:53;12.65;;;2.88;;
75645;SDS011;64237;52.438;13.240;2023-06-10T01:54:19;8.68;;;3.03;;
75645;SDS011;64237;52.438;13.240;2023-06-10T01:56:44;10.90;;;3.15;;
75645;SDS011;64237;52.438;13.240;2023-06-10T01:59:09;9.55;;;3.20;;
75645;SDS011;64237;52.438;13.240;2023-06-10T02:01:35;11.00;;;2.97;;
75645;SDS011;64237;52.438;13.240;2023-06-10T02:04:00;10.10;;;3.23;;
75645;SDS011;64237;52.438;13.240;2023-06-10T02:06:25;8.55;;;3.05;;
75645;SDS011;64237;52.438;13.240;2023-06-10T02:08:51;9.90;;;3.13;;
75645;SDS011;64237;52.438;13.240;2023-06-10T02:11:16;9.82;;;3.55;;
75645;SDS011;64237;52.438;13.240;2023-06-10T02:13:41;11.88;;;3.30;;
75645;SDS011;64237;52.438;13.240;2023-06-10T02:16:07;7.60;;;2.97;;
75645;SDS011;64237;52.438;13.240;2023-06-10T02:18:32;12.70;;;3.42;;
75645;SDS011;64237;52.438;13.240;2023-06-10T02:20:58;9.50;;;2.85;;
75645;SDS011;64237;52.438;13.240;2023-06-10T02:23:24;8.70;;;2.90;;
75645;SDS011;64237;52.438;13.240;2023-06-10T02:25:49;9.95;;;3.13;;
75645;SDS011;64237;52.438;13.240;2023-06-10T02:28:15;12.50;;;3.85;;
75645;SDS011;64237;52.438;13.240;2023-06-10T02:30:40;8.40;;;2.95;;
75645;SDS011;64237;52.438;13.240;2023-06-10T02:33:06;14.23;;;3.08;;
75645;SDS011;64237;52.438;13.240;2023-06-10T02:35:35;7.60;;;3.13;;
75645;SDS011;64237;52.438;13.240;2023-06-10T02:38:01;10.40;;;3.30;;
75645;SDS011;64237;52.438;13.240;2023-06-10T02:40:27;9.20;;;2.90;;
75645;SDS011;64237;52.438;13.240;2023-06-10T02:42:52;12.60;;;3.00;;
75645;SDS011;64237;52.438;13.240;2023-06-10T02:45:17;12.93;;;3.38;;
75645;SDS011;64237;52.438;13.240;2023-06-10T02:47:43;10.50;;;3.70;;
75645;SDS011;64237;52.438;13.240;2023-06-10T02:50:08;9.68;;;2.85;;
75645;SDS011;64237;52.438;13.240;2023-06-10T02:52:34;6.63;;;2.80;;
75645;SDS011;64237;52.438;13.240;2023-06-10T02:54:59;7.38;;;3.13;;
75645;SDS011;64237;52.438;13.240;2023-06-10T02:57:24;8.65;;;2.80;;
75645;SDS011;64237;52.438;13.240;2023-06-10T02:59:50;9.63;;;3.30;;
75645;SDS011;64237;52.438;13.240;2023-06-10T03:02:16;11.05;;;3.20;;
75645;SDS011;64237;52.438;13.240;2023-06-10T03:04:41;9.55;;;3.00;;
75645;SDS011;64237;52.438;13.240;2023-06-10T03:07:08;11.32;;;3.38;;
75645;SDS011;64237;52.438;13.240;2023-06-10T03:09:36;9.85;;;3.17;;
75645;SDS011;64237;52.438;13.240;2023-06-10T03:12:01;9.10;;;3.00;;
75645;SDS011;64237;52.438;13.240;2023-06-10T03:14:27;10.80;;;3.42;;
75645;SDS011;64237;52.438;13.240;2023-06-10T03:16:52;11.15;;;3.42;;
75645;SDS011;64237;52.438;13.240;2023-06-10T03:19:18;11.50;;;3.50;;
75645;SDS011;64237;52.438;13.240;2023-06-10T03:21:44;11.73;;;3.00;;
75645;SDS011;64237;52.438;13.240;2023-06-10T03:24:09;10.00;;;3.75;;
75645;SDS011;64237;52.438;13.240;2023-06-10T03:26:35;10.57;;;3.20;;
75645;SDS011;64237;52.438;13.240;2023-06-10T03:29:01;13.02;;;4.35;;
75645;SDS011;64237;52.438;13.240;2023-06-10T03:31:27;10.63;;;3.33;;
75645;SDS011;64237;52.438;13.240;2023-06-10T03:33:52;9.88;;;3.30;;
75645;SDS011;64237;52.438;13.240;2023-06-10T03:36:17;9.70;;;2.95;;
75645;SDS011;64237;52.438;13.240;2023-06-10T03:38:43;14.05;;;3.28;;
75645;SDS011;64237;52.438;13.240;2023-06-10T03:41:08;11.18;;;3.28;;
75645;SDS011;64237;52.438;13.240;2023-06-10T03:43:33;12.68;;;2.80;;
75645;SDS011;64237;52.438;13.240;2023-06-10T03:45:59;11.73;;;3.17;;
75645;SDS011;64237;52.438;13.240;2023-06-10T03:48:24;7.93;;;3.33;;
75645;SDS011;64237;52.438;13.240;2023-06-10T03:50:49;12.90;;;3.97;;
75645;SDS011;64237;52.438;13.240;2023-06-10T03:53:18;13.95;;;3.45;;
75645;SDS011;64237;52.438;13.240;2023-06-10T03:55:43;12.40;;;3.67;;
75645;SDS011;64237;52.438;13.240;2023-06-10T03:58:10;10.32;;;3.22;;
75645;SDS011;64237;52.438;13.240;2023-06-10T04:00:38;10.77;;;3.30;;
75645;SDS011;64237;52.438;13.240;2023-06-10T04:03:06;11.63;;;3.42;;
75645;SDS011;64237;52.438;13.240;2023-06-10T04:05:34;11.65;;;3.45;;
75645;SDS011;64237;52.438;13.240;2023-06-10T04:08:00;11.60;;;3.50;;
75645;SDS011;64237;52.438;13.240;2023-06-10T04:10:26;10.30;;;3.80;;
75645;SDS011;64237;52.438;13.240;2023-06-10T04:12:51;11.32;;;3.47;;
75645;SDS011;64237;52.438;13.240;2023-06-10T04:15:17;12.48;;;4.03;;
75645;SDS011;64237;52.438;13.240;2023-06-10T04:17:42;11.75;;;3.72;;
75645;SDS011;64237;52.438;13.240;2023-06-10T04:20:08;12.43;;;3.75;;
75645;SDS011;64237;52.438;13.240;2023-06-10T04:22:34;9.07;;;3.47;;
75645;SDS011;64237;52.438;13.240;2023-06-10T04:25:01;9.70;;;3.60;;
75645;SDS011;64237;52.438;13.240;2023-06-10T04:27:26;11.55;;;3.85;;
75645;SDS011;64237;52.438;13.240;2023-06-10T04:29:52;10.57;;;3.50;;
75645;SDS011;64237;52.438;13.240;2023-06-10T04:32:17;11.20;;;3.50;;
75645;SDS011;64237;52.438;13.240;2023-06-10T04:34:43;12.50;;;3.53;;
75645;SDS011;64237;52.438;13.240;2023-06-10T04:37:08;10.55;;;3.30;;
75645;SDS011;64237;52.438;13.240;2023-06-10T04:39:33;11.45;;;3.30;;
75645;SDS011;64237;52.438;13.240;2023-06-10T04:41:59;10.60;;;3.90;;
75645;SDS011;64237;52.438;13.240;2023-06-10T04:44:25;12.55;;;3.63;;
75645;SDS011;64237;52.438;13.240;2023-06-10T04:46:51;12.40;;;3.72;;
75645;SDS011;64237;52.438;13.240;2023-06-10T04:49:16;10.33;;;3.53;;
75645;SDS011;64237;52.438;13.240;2023-06-10T04:51:41;9.63;;;3.73;;
75645;SDS011;64237;52.438;13.240;2023-06-10T04:54:07;10.90;;;3.25;;
75645;SDS011;64237;52.438;13.240;2023-06-10T04:56:32;11.48;;;4.13;;
75645;SDS011;64237;52.438;13.240;2023-06-10T04:58:58;8.10;;;3.28;;
75645;SDS011;64237;52.438;13.240;2023-06-10T05:01:24;13.68;;;5.13;;
75645;SDS011;64237;52.438;13.240;2023-06-10T05:03:49;12.75;;;4.18;;
75645;SDS011;64237;52.438;13.240;2023-06-10T05:06:15;10.00;;;3.90;;
75645;SDS011;64237;52.438;13.240;2023-06-10T05:08:40;12.40;;;4.22;;
75645;SDS011;64237;52.438;13.240;2023-06-10T05:11:05;12.68;;;4.75;;
75645;SDS011;64237;52.438;13.240;2023-06-10T05:13:31;10.82;;;4.18;;
75645;SDS011;64237;52.438;13.240;2023-06-10T05:15:56;9.90;;;4.05;;
75645;SDS011;64237;52.438;13.240;2023-06-10T05:18:22;9.93;;;3.65;;
75645;SDS011;64237;52.438;13.240;2023-06-10T05:20:48;12.77;;;3.90;;
75645;SDS011;64237;52.438;13.240;2023-06-10T05:23:14;12.48;;;4.10;;
75645;SDS011;64237;52.438;13.240;2023-06-10T05:25:39;10.13;;;3.72;;
75645;SDS011;64237;52.438;13.240;2023-06-10T05:28:06;11.95;;;4.28;;
75645;SDS011;64237;52.438;13.240;2023-06-10T05:30:34;12.90;;;4.07;;
75645;SDS011;64237;52.438;13.240;2023-06-10T05:33:00;11.15;;;4.13;;
75645;SDS011;64237;52.438;13.240;2023-06-10T05:35:26;14.47;;;4.37;;
75645;SDS011;64237;52.438;13.240;2023-06-10T05:37:51;11.10;;;3.80;;
75645;SDS011;64237;52.438;13.240;2023-06-10T05:40:16;11.70;;;4.10;;
75645;SDS011;64237;52.438;13.240;2023-06-10T05:42:42;10.10;;;4.15;;
75645;SDS011;64237;52.438;13.240;2023-06-10T05:45:07;10.43;;;4.10;;
75645;SDS011;64237;52.438;13.240;2023-06-10T05:47:33;12.93;;;3.95;;
75645;SDS011;64237;52.438;13.240;2023-06-10T05:49:58;9.60;;;3.78;;
75645;SDS011;64237;52.438;13.240;2023-06-10T05:52:24;9.98;;;4.07;;
75645;SDS011;64237;52.438;13.240;2023-06-10T05:54:49;10.40;;;3.90;;
75645;SDS011;64237;52.438;13.240;2023-06-10T05:57:15;14.18;;;4.50;;
75645;SDS011;64237;52.438;13.240;2023-06-10T05:59:41;9.75;;;4.10;;
75645;SDS011;64237;52.438;13.240;2023-06-10T06:02:06;9.10;;;3.80;;
75645;SDS011;64237;52.438;13.240;2023-06-10T06:04:31;17.10;;;5.45;;
75645;SDS011;64237;52.438;13.240;2023-06-10T06:06:57;9.68;;;4.00;;
75645;SDS011;64237;52.438;13.240;2023-06-10T06:09:22;11.32;;;4.60;;
75645;SDS011;64237;52.438;13.240;2023-06-10T06:11:47;10.43;;;4.05;;
75645;SDS011;64237;52.438;13.240;2023-06-10T06:14:13;9.63;;;4.05;;
75645;SDS011;64237;52.438;13.240;2023-06-10T06:16:38;9.25;;;4.13;;
75645;SDS011;64237;52.438;13.240;2023-06-10T06:19:04;10.27;;;3.92;;
75645;SDS011;64237;52.438;13.240;2023-06-10T06:21:29;11.68;;;4.20;;
75645;SDS011;64237;52.438;13.240;2023-06-10T06:23:54;14.38;;;4.50;;
75645;SDS011;64237;52.438;13.240;2023-06-10T06:26:20;10.60;;;3.97;;
75645;SDS011;64237;52.438;13.240;2023-06-10T06:28:45;11.23;;;4.05;;
75645;SDS011;64237;52.438;13.240;2023-06-10T06:31:11;12.48;;;4.30;;
75645;SDS011;64237;52.438;13.240;2023-06-10T06:33:36;14.25;;;4.60;;
75645;SDS011;64237;52.438;13.240;2023-06-10T06:36:01;10.55;;;4.63;;
75645;SDS011;64237;52.438;13.240;2023-06-10T06:38:27;10.23;;;4.38;;
75645;SDS011;64237;52.438;13.240;2023-06-10T06:40:52;10.35;;;4.07;;
75645;SDS011;64237;52.438;13.240;2023-06-10T06:43:18;9.50;;;4.37;;
75645;SDS011;64237;52.438;13.240;2023-06-10T06:45:43;9.45;;;3.83;;
75645;SDS011;64237;52.438;13.240;2023-06-10T06:48:10;10.50;;;4.60;;
75645;SDS011;64237;52.438;13.240;2023-06-10T06:50:36;9.27;;;3.88;;
75645;SDS011;64237;52.438;13.240;2023-06-10T06:53:02;8.07;;;4.28;;
75645;SDS011;64237;52.438;13.240;2023-06-10T06:55:28;10.43;;;4.57;;
75645;SDS011;64237;52.438;13.240;2023-06-10T06:57:53;9.65;;;3.95;;
75645;SDS011;64237;52.438;13.240;2023-06-10T07:00:19;9.80;;;4.30;;
75645;SDS011;64237;52.438;13.240;2023-06-10T07:02:44;10.55;;;4.38;;
75645;SDS011;64237;52.438;13.240;2023-06-10T07:05:10;13.90;;;5.07;;
75645;SDS011;64237;52.438;13.240;2023-06-10T07:07:35;12.20;;;4.32;;
75645;SDS011;64237;52.438;13.240;2023-06-10T07:10:01;10.07;;;4.43;;
75645;SDS011;64237;52.438;13.240;2023-06-10T07:12:26;10.68;;;4.38;;
75645;SDS011;64237;52.438;13.240;2023-06-10T07:14:52;11.38;;;4.53;;
75645;SDS011;64237;52.438;13.240;2023-06-10T07:17:17;10.40;;;4.15;;
75645;SDS011;64237;52.438;13.240;2023-06-10T07:19:45;9.63;;;3.97;;
75645;SDS011;64237;52.438;13.240;2023-06-10T07:22:11;15.25;;;4.40;;
75645;SDS011;64237;52.438;13.240;2023-06-10T07:24:36;12.35;;;4.90;;
75645;SDS011;64237;52.438;13.240;2023-06-10T07:27:02;12.40;;;4.63;;
75645;SDS011;64237;52.438;13.240;2023-06-10T07:29:27;11.35;;;4.25;;
75645;SDS011;64237;52.438;13.240;2023-06-10T07:31:52;11.13;;;4.70;;
75645;SDS011;64237;52.438;13.240;2023-06-10T07:34:18;11.35;;;4.68;;
75645;SDS011;64237;52.438;13.240;2023-06-10T07:36:44;12.85;;;4.80;;
75645;SDS011;64237;52.438;13.240;2023-06-10T07:39:09;15.10;;;4.90;;
75645;SDS011;64237;52.438;13.240;2023-06-10T07:41:35;10.07;;;4.50;;
75645;SDS011;64237;52.438;13.240;2023-06-10T07:44:00;15.35;;;4.90;;
75645;SDS011;64237;52.438;13.240;2023-06-10T07:46:26;12.23;;;5.00;;
75645;SDS011;64237;52.438;13.240;2023-06-10T07:48:52;13.50;;;5.00;;
75645;SDS011;64237;52.438;13.240;2023-06-10T07:51:18;10.70;;;4.63;;
75645;SDS011;64237;52.438;13.240;2023-06-10T07:53:44;13.57;;;5.30;;
75645;SDS011;64237;52.438;13.240;2023-06-10T07:56:09;14.40;;;5.68;;
75645;SDS011;64237;52.438;13.240;2023-06-10T07:58:36;9.27;;;4.60;;
75645;SDS011;64237;52.438;13.240;2023-06-10T08:01:01;9.27;;;4.85;;
75645;SDS011;64237;52.438;13.240;2023-06-10T08:03:28;10.25;;;4.75;;
75645;SDS011;64237;52.438;13.240;2023-06-10T08:05:53;10.80;;;5.25;;
75645;SDS011;64237;52.438;13.240;2023-06-10T08:08:18;11.60;;;5.03;;
75645;SDS011;64237;52.438;13.240;2023-06-10T08:10:44;11.88;;;5.10;;
75645;SDS011;64237;52.438;13.240;2023-06-10T08:13:09;11.57;;;4.90;;
75645;SDS011;64237;52.438;13.240;2023-06-10T08:15:34;13.20;;;5.30;;
75645;SDS011;64237;52.438;13.240;2023-06-10T08:18:00;10.98;;;5.07;;
75645;SDS011;64237;52.438;13.240;2023-06-10T08:20:25;10.40;;;5.22;;
75645;SDS011;64237;52.438;13.240;2023-06-10T08:22:51;9.95;;;4.40;;
75645;SDS011;64237;52.438;13.240;2023-06-10T08:25:16;12.93;;;5.80;;
75645;SDS011;64237;52.438;13.240;2023-06-10T08:27:42;11.75;;;4.97;;
75645;SDS011;64237;52.438;13.240;2023-06-10T08:30:07;9.55;;;4.90;;
75645;SDS011;64237;52.438;13.240;2023-06-10T08:32:35;9.30;;;4.90;;
75645;SDS011;64237;52.438;13.240;2023-06-10T08:35:00;11.10;;;5.15;;
75645;SDS011;64237;52.438;13.240;2023-06-10T08:37:25;11.02;;;4.50;;
75645;SDS011;64237;52.438;13.240;2023-06-10T08:39:51;10.68;;;5.45;;
75645;SDS011;64237;52.438;13.240;2023-06-10T08:42:22;13.33;;;5.10;;
75645;SDS011;64237;52.438;13.240;2023-06-10T08:44:52;11.75;;;4.82;;
75645;SDS011;64237;52.438;13.240;2023-06-10T08:47:21;12.20;;;4.85;;
75645;SDS011;64237;52.438;13.240;2023-06-10T08:49:48;12.18;;;5.30;;
75645;SDS011;64237;52.438;13.240;2023-06-10T08:52:14;11.77;;;5.05;;
75645;SDS011;64237;52.438;13.240;2023-06-10T08:54:42;12.32;;;5.50;;
75645;SDS011;64237;52.438;13.240;2023-06-10T08:57:12;11.05;;;5.07;;
75645;SDS011;64237;52.438;13.240;2023-06-10T08:59:38;10.88;;;4.75;;
75645;SDS011;64237;52.438;13.240;2023-06-10T09:02:04;12.07;;;5.38;;
75645;SDS011;64237;52.438;13.240;2023-06-10T09:04:31;11.05;;;5.00;;
75645;SDS011;64237;52.438;13.240;2023-06-10T09:06:56;14.68;;;5.82;;
75645;SDS011;64237;52.438;13.240;2023-06-10T09:09:22;14.73;;;4.93;;
75645;SDS011;64237;52.438;13.240;2023-06-10T09:11:48;14.05;;;5.45;;
75645;SDS011;64237;52.438;13.240;2023-06-10T09:14:13;12.57;;;4.80;;
75645;SDS011;64237;52.438;13.240;2023-06-10T09:16:40;11.40;;;5.35;;
75645;SDS011;64237;52.438;13.240;2023-06-10T09:19:05;10.43;;;4.90;;
75645;SDS011;64237;52.438;13.240;2023-06-10T09:21:34;9.95;;;5.10;;
75645;SDS011;64237;52.438;13.240;2023-06-10T09:24:01;8.65;;;4.68;;
75645;SDS011;64237;52.438;13.240;2023-06-10T09:26:29;15.07;;;5.20;;
75645;SDS011;64237;52.438;13.240;2023-06-10T09:29:02;15.20;;;5.32;;
75645;SDS011;64237;52.438;13.240;2023-06-10T09:31:30;11.02;;;4.88;;
75645;SDS011;64237;52.438;13.240;2023-06-10T09:34:04;9.73;;;4.53;;
75645;SDS011;64237;52.438;13.240;2023-06-10T09:36:40;10.88;;;5.05;;
75645;SDS011;64237;52.438;13.240;2023-06-10T09:39:13;8.68;;;4.50;;
75645;SDS011;64237;52.438;13.240;2023-06-10T09:41:41;10.18;;;5.03;;
75645;SDS011;64237;52.438;13.240;2023-06-10T09:46:39;13.07;;;5.00;;
75645;SDS011;64237;52.438;13.240;2023-06-10T09:49:05;11.88;;;5.25;;
75645;SDS011;64237;52.438;13.240;2023-06-10T09:51:31;10.18;;;4.90;;
75645;SDS011;64237;52.438;13.240;2023-06-10T09:53:57;12.30;;;5.43;;
75645;SDS011;64237;52.438;13.240;2023-06-10T09:56:33;11.75;;;4.70;;
75645;SDS011;64237;52.438;13.240;2023-06-10T09:59:00;9.80;;;5.03;;
75645;SDS011;64237;52.438;13.240;2023-06-10T10:01:25;11.73;;;5.10;;
75645;SDS011;64237;52.438;13.240;2023-06-10T10:03:51;10.88;;;4.72;;
75645;SDS011;64237;52.438;13.240;2023-06-10T10:06:17;13.85;;;4.90;;
75645;SDS011;64237;52.438;13.240;2023-06-10T10:08:44;10.60;;;5.25;;
75645;SDS011;64237;52.438;13.240;2023-06-10T10:11:10;13.82;;;5.05;;
75645;SDS011;64237;52.438;13.240;2023-06-10T10:13:36;14.48;;;4.50;;
75645;SDS011;64237;52.438;13.240;2023-06-10T10:16:07;10.40;;;4.82;;
75645;SDS011;64237;52.438;13.240;2023-06-10T10:18:41;11.10;;;5.07;;
75645;SDS011;64237;52.438;13.240;2023-06-10T10:21:13;10.82;;;4.32;;
75645;SDS011;64237;52.438;13.240;2023-06-10T10:23:50;9.43;;;4.63;;
75645;SDS011;64237;52.438;13.240;2023-06-10T10:26:19;11.20;;;5.03;;
75645;SDS011;64237;52.438;13.240;2023-06-10T10:28:48;9.00;;;4.60;;
75645;SDS011;64237;52.438;13.240;2023-06-10T10:31:23;10.55;;;5.00;;
75645;SDS011;64237;52.438;13.240;2023-06-10T10:33:53;13.02;;;4.95;;
75645;SDS011;64237;52.438;13.240;2023-06-10T10:36:22;9.35;;;4.82;;
75645;SDS011;64237;52.438;13.240;2023-06-10T10:38:48;10.50;;;4.80;;
75645;SDS011;64237;52.438;13.240;2023-06-10T10:43:43;12.18;;;4.97;;
75645;SDS011;64237;52.438;13.240;2023-06-10T10:46:13;8.52;;;4.85;;
75645;SDS011;64237;52.438;13.240;2023-06-10T10:48:41;9.85;;;4.78;;
75645;SDS011;64237;52.438;13.240;2023-06-10T10:51:08;12.45;;;4.57;;
75645;SDS011;64237;52.438;13.240;2023-06-10T10:53:34;11.20;;;4.75;;
75645;SDS011;64237;52.438;13.240;2023-06-10T10:56:05;9.57;;;4.68;;
75645;SDS011;64237;52.438;13.240;2023-06-10T10:58:38;9.85;;;4.63;;
75645;SDS011;64237;52.438;13.240;2023-06-10T11:01:13;8.32;;;4.38;;
75645;SDS011;64237;52.438;13.240;2023-06-10T11:03:46;10.18;;;3.92;;
75645;SDS011;64237;52.438;13.240;2023-06-10T11:06:14;10.27;;;4.57;;
75645;SDS011;64237;52.438;13.240;2023-06-10T11:11:20;9.50;;;4.25;;
75645;SDS011;64237;52.438;13.240;2023-06-10T11:16:38;7.68;;;3.83;;
75645;SDS011;64237;52.438;13.240;2023-06-10T11:19:05;8.20;;;3.63;;
75645;SDS011;64237;52.438;13.240;2023-06-10T11:21:30;7.90;;;3.37;;
75645;SDS011;64237;52.438;13.240;2023-06-10T11:23:57;9.18;;;3.35;;
75645;SDS011;64237;52.438;13.240;2023-06-10T11:31:21;7.50;;;3.33;;
75645;SDS011;64237;52.438;13.240;2023-06-10T11:33:52;7.95;;;3.42;;
75645;SDS011;64237;52.438;13.240;2023-06-10T11:36:22;6.68;;;3.58;;
75645;SDS011;64237;52.438;13.240;2023-06-10T11:38:53;7.43;;;3.28;;
75645;SDS011;64237;52.438;13.240;2023-06-10T11:41:26;6.18;;;3.47;;
75645;SDS011;64237;52.438;13.240;2023-06-10T11:43:53;6.55;;;3.75;;
75645;SDS011;64237;52.438;13.240;2023-06-10T11:46:22;9.00;;;3.72;;
75645;SDS011;64237;52.438;13.240;2023-06-10T11:48:55;7.75;;;3.83;;
75645;SDS011;64237;52.438;13.240;2023-06-10T11:51:21;7.32;;;4.10;;
75645;SDS011;64237;52.438;13.240;2023-06-10T11:53:47;10.45;;;4.35;;
75645;SDS011;64237;52.438;13.240;2023-06-10T11:56:18;15.32;;;4.63;;
75645;SDS011;64237;52.438;13.240;2023-06-10T12:01:30;8.77;;;4.40;;
75645;SDS011;64237;52.438;13.240;2023-06-10T12:03:58;7.43;;;4.00;;
75645;SDS011;64237;52.438;13.240;2023-06-10T12:06:43;9.55;;;4.53;;
75645;SDS011;64237;52.438;13.240;2023-06-10T12:09:14;7.03;;;3.90;;
75645;SDS011;64237;52.438;13.240;2023-06-10T12:11:40;8.18;;;4.45;;
75645;SDS011;64237;52.438;13.240;2023-06-10T12:14:07;10.25;;;4.43;;
75645;SDS011;64237;52.438;13.240;2023-06-10T12:16:32;8.00;;;4.25;;
75645;SDS011;64237;52.438;13.240;2023-06-10T12:19:01;9.18;;;4.50;;
75645;SDS011;64237;52.438;13.240;2023-06-10T12:21:31;9.35;;;4.30;;
75645;SDS011;64237;52.438;13.240;2023-06-10T12:24:08;7.63;;;3.72;;
75645;SDS011;64237;52.438;13.240;2023-06-10T12:26:42;9.00;;;4.18;;
75645;SDS011;64237;52.438;13.240;2023-06-10T12:29:15;9.25;;;4.20;;
75645;SDS011;64237;52.438;13.240;2023-06-10T12:31:52;11.15;;;4.07;;
75645;SDS011;64237;52.438;13.240;2023-06-10T12:34:31;7.43;;;3.38;;
75645;SDS011;64237;52.438;13.240;2023-06-10T12:36:57;8.95;;;3.50;;
75645;SDS011;64237;52.438;13.240;2023-06-10T12:39:22;7.40;;;3.70;;
75645;SDS011;64237;52.438;13.240;2023-06-10T12:41:48;6.65;;;3.78;;
75645;SDS011;64237;52.438;13.240;2023-06-10T12:44:14;8.20;;;4.32;;
75645;SDS011;64237;52.438;13.240;2023-06-10T12:46:40;8.25;;;4.30;;
75645;SDS011;64237;52.438;13.240;2023-06-10T12:49:05;7.88;;;3.92;;
75645;SDS011;64237;52.438;13.240;2023-06-10T12:51:31;7.47;;;4.22;;
75645;SDS011;64237;52.438;13.240;2023-06-10T12:53:58;8.77;;;4.18;;
75645;SDS011;64237;52.438;13.240;2023-06-10T12:56:23;7.53;;;4.00;;
75645;SDS011;64237;52.438;13.240;2023-06-10T12:58:48;7.50;;;4.45;;
75645;SDS011;64237;52.438;13.240;2023-06-10T13:01:14;11.43;;;4.40;;
75645;SDS011;64237;52.438;13.240;2023-06-10T13:03:40;8.45;;;4.00;;
75645;SDS011;64237;52.438;13.240;2023-06-10T13:06:06;10.05;;;4.40;;
75645;SDS011;64237;52.438;13.240;2023-06-10T13:08:32;8.13;;;4.47;;
75645;SDS011;64237;52.438;13.240;2023-06-10T13:10:57;8.30;;;4.40;;
75645;SDS011;64237;52.438;13.240;2023-06-10T13:13:23;9.05;;;4.47;;
75645;SDS011;64237;52.438;13.240;2023-06-10T13:15:48;7.50;;;4.45;;
75645;SDS011;64237;52.438;13.240;2023-06-10T13:18:15;8.43;;;4.70;;
75645;SDS011;64237;52.438;13.240;2023-06-10T13:20:40;9.35;;;4.70;;
75645;SDS011;64237;52.438;13.240;2023-06-10T13:23:06;10.30;;;4.75;;
75645;SDS011;64237;52.438;13.240;2023-06-10T13:25:32;9.30;;;4.75;;
75645;SDS011;64237;52.438;13.240;2023-06-10T13:27:57;11.98;;;4.88;;
75645;SDS011;64237;52.438;13.240;2023-06-10T13:30:23;8.88;;;5.28;;
75645;SDS011;64237;52.438;13.240;2023-06-10T13:32:48;11.48;;;5.10;;
75645;SDS011;64237;52.438;13.240;2023-06-10T13:35:13;8.10;;;5.40;;
75645;SDS011;64237;52.438;13.240;2023-06-10T13:37:39;7.70;;;5.07;;
75645;SDS011;64237;52.438;13.240;2023-06-10T13:40:05;8.82;;;5.00;;
75645;SDS011;64237;52.438;13.240;2023-06-10T13:42:30;10.85;;;5.07;;
75645;SDS011;64237;52.438;13.240;2023-06-10T13:44:56;9.80;;;5.20;;
75645;SDS011;64237;52.438;13.240;2023-06-10T13:47:21;10.57;;;4.93;;
75645;SDS011;64237;52.438;13.240;2023-06-10T13:49:47;9.77;;;5.43;;
75645;SDS011;64237;52.438;13.240;2023-06-10T13:52:12;11.75;;;4.97;;
75645;SDS011;64237;52.438;13.240;2023-06-10T13:54:38;10.05;;;5.60;;
75645;SDS011;64237;52.438;13.240;2023-06-10T13:57:03;8.70;;;5.05;;
75645;SDS011;64237;52.438;13.240;2023-06-10T13:59:29;10.13;;;4.70;;
75645;SDS011;64237;52.438;13.240;2023-06-10T14:01:54;9.55;;;5.22;;
75645;SDS011;64237;52.438;13.240;2023-06-10T14:04:21;11.70;;;5.50;;
75645;SDS011;64237;52.438;13.240;2023-06-10T14:06:47;9.43;;;5.35;;
75645;SDS011;64237;52.438;13.240;2023-06-10T14:09:13;10.35;;;5.40;;
75645;SDS011;64237;52.438;13.240;2023-06-10T14:11:39;10.73;;;5.10;;
75645;SDS011;64237;52.438;13.240;2023-06-10T14:14:04;9.77;;;5.15;;
75645;SDS011;64237;52.438;13.240;2023-06-10T14:16:30;11.60;;;5.00;;
75645;SDS011;64237;52.438;13.240;2023-06-10T14:18:55;9.23;;;4.68;;
75645;SDS011;64237;52.438;13.240;2023-06-10T14:21:21;9.13;;;4.83;;
75645;SDS011;64237;52.438;13.240;2023-06-10T14:23:46;7.90;;;4.83;;
75645;SDS011;64237;52.438;13.240;2023-06-10T14:26:12;10.50;;;5.00;;
75645;SDS011;64237;52.438;13.240;2023-06-10T14:28:37;10.68;;;4.75;;
75645;SDS011;64237;52.438;13.240;2023-06-10T14:31:02;11.70;;;5.20;;
75645;SDS011;64237;52.438;13.240;2023-06-10T14:33:28;9.45;;;4.45;;
75645;SDS011;64237;52.438;13.240;2023-06-10T14:35:53;8.60;;;4.88;;
75645;SDS011;64237;52.438;13.240;2023-06-10T14:38:19;8.23;;;4.47;;
75645;SDS011;64237;52.438;13.240;2023-06-10T14:40:44;8.63;;;4.57;;